sensor_id;sensor_type;location;lat;lon;timestamp;P1;durP1;ratioP1;P2;durP2;ratioP2
37349;SDS011;23231;52.358;4.926;2024-02-21T00:04:17;18.75;;;3.58;;
37349;SDS011;23231;52.358;4.926;2024-02-21T00:09:41;19.30;;;3.10;;
37349;SDS011;23231;52.358;4.926;2024-02-21T00:14:46;19.93;;;3.03;;
37349;SDS011;23231;52.358;4.926;2024-02-21T00:20:00;18.13;;;3.35;;
37349;SDS011;23231;52.358;4.926;2024-02-21T00:25:09;15.27;;;3.25;;
37349;SDS011;23231;52.358;4.926;2024-02-21T00:30:19;21.65;;;3.45;;
37349;SDS011;23231;52.358;4.926;2024-02-21T00:35:25;16.05;;;3.20;;
37349;SDS011;23231;52.358;4.926;2024-02-21T00:40:34;14.32;;;2.92;;
37349;SDS011;23231;52.358;4.926;2024-02-21T00:45:40;19.38;;;3.60;;
37349;SDS011;23231;52.358;4.926;2024-02-21T00:50:43;15.10;;;3.10;;
37349;SDS011;23231;52.358;4.926;2024-02-21T00:55:45;16.90;;;3.35;;
37349;SDS011;23231;52.358;4.926;2024-02-21T01:00:52;18.42;;;2.80;;
37349;SDS011;23231;52.358;4.926;2024-02-21T01:05:55;15.65;;;2.83;;
37349;SDS011;23231;52.358;4.926;2024-02-21T01:11:08;17.65;;;3.33;;
37349;SDS011;23231;52.358;4.926;2024-02-21T01:16:13;15.65;;;3.15;;
37349;SDS011;23231;52.358;4.926;2024-02-21T01:21:16;21.15;;;3.80;;
37349;SDS011;23231;52.358;4.926;2024-02-21T01:31:27;18.42;;;3.63;;
37349;SDS011;23231;52.358;4.926;2024-02-21T01:36:31;16.88;;;3.95;;
37349;SDS011;23231;52.358;4.926;2024-02-21T01:41:33;19.88;;;4.93;;
37349;SDS011;23231;52.358;4.926;2024-02-21T01:46:37;20.52;;;3.30;;
37349;SDS011;23231;52.358;4.926;2024-02-21T01:51:52;16.73;;;3.30;;
37349;SDS011;23231;52.358;4.926;2024-02-21T01:57:06;15.48;;;3.47;;
37349;SDS011;23231;52.358;4.926;2024-02-21T02:02:07;24.00;;;3.97;;
37349;SDS011;23231;52.358;4.926;2024-02-21T02:07:08;21.48;;;3.63;;
37349;SDS011;23231;52.358;4.926;2024-02-21T02:12:09;20.55;;;3.92;;
37349;SDS011;23231;52.358;4.926;2024-02-21T02:17:14;17.73;;;3.30;;
37349;SDS011;23231;52.358;4.926;2024-02-21T02:22:28;21.92;;;3.53;;
37349;SDS011;23231;52.358;4.926;2024-02-21T02:27:43;21.95;;;3.60;;
37349;SDS011;23231;52.358;4.926;2024-02-21T02:33:05;20.92;;;3.70;;
37349;SDS011;23231;52.358;4.926;2024-02-21T02:38:14;19.50;;;4.00;;
37349;SDS011;23231;52.358;4.926;2024-02-21T02:43:19;22.45;;;4.43;;
37349;SDS011;23231;52.358;4.926;2024-02-21T02:48:24;18.30;;;3.70;;
37349;SDS011;23231;52.358;4.926;2024-02-21T02:53:33;19.95;;;3.65;;
37349;SDS011;23231;52.358;4.926;2024-02-21T02:58:57;25.83;;;4.22;;
37349;SDS011;23231;52.358;4.926;2024-02-21T03:04:05;25.10;;;3.88;;
37349;SDS011;23231;52.358;4.926;2024-02-21T03:09:14;23.48;;;4.07;;
37349;SDS011;23231;52.358;4.926;2024-02-21T03:14:21;25.67;;;4.03;;
37349;SDS011;23231;52.358;4.926;2024-02-21T03:19:35;27.48;;;3.67;;
37349;SDS011;23231;52.358;4.926;2024-02-21T03:24:44;17.02;;;3.33;;
37349;SDS011;23231;52.358;4.926;2024-02-21T03:29:49;18.63;;;3.45;;
37349;SDS011;23231;52.358;4.926;2024-02-21T03:35:16;21.42;;;3.90;;
37349;SDS011;23231;52.358;4.926;2024-02-21T03:40:45;22.00;;;4.22;;
37349;SDS011;23231;52.358;4.926;2024-02-21T03:45:50;20.88;;;3.83;;
37349;SDS011;23231;52.358;4.926;2024-02-21T03:50:51;21.48;;;3.55;;
37349;SDS011;23231;52.358;4.926;2024-02-21T03:55:52;23.52;;;4.35;;
37349;SDS011;23231;52.358;4.926;2024-02-21T04:01:03;17.92;;;4.72;;
37349;SDS011;23231;52.358;4.926;2024-02-21T04:06:10;21.13;;;3.58;;
37349;SDS011;23231;52.358;4.926;2024-02-21T04:11:14;21.42;;;3.38;;
37349;SDS011;23231;52.358;4.926;2024-02-21T04:16:27;17.02;;;3.28;;
37349;SDS011;23231;52.358;4.926;2024-02-21T04:21:40;18.55;;;3.90;;
37349;SDS011;23231;52.358;4.926;2024-02-21T04:26:51;20.75;;;3.72;;
37349;SDS011;23231;52.358;4.926;2024-02-21T04:31:57;22.25;;;3.85;;
37349;SDS011;23231;52.358;4.926;2024-02-21T04:37:00;19.08;;;3.58;;
37349;SDS011;23231;52.358;4.926;2024-02-21T04:42:11;19.83;;;3.50;;
37349;SDS011;23231;52.358;4.926;2024-02-21T04:47:13;20.02;;;4.15;;
37349;SDS011;23231;52.358;4.926;2024-02-21T04:52:28;18.27;;;4.03;;
37349;SDS011;23231;52.358;4.926;2024-02-21T04:57:30;17.83;;;5.85;;
37349;SDS011;23231;52.358;4.926;2024-02-21T05:02:37;24.88;;;5.32;;
37349;SDS011;23231;52.358;4.926;2024-02-21T05:07:47;21.63;;;5.97;;
37349;SDS011;23231;52.358;4.926;2024-02-21T05:12:54;20.17;;;6.22;;
37349;SDS011;23231;52.358;4.926;2024-02-21T05:18:11;23.50;;;6.00;;
37349;SDS011;23231;52.358;4.926;2024-02-21T05:23:33;20.80;;;5.90;;
37349;SDS011;23231;52.358;4.926;2024-02-21T05:28:39;19.52;;;7.00;;
37349;SDS011;23231;52.358;4.926;2024-02-21T05:33:43;18.45;;;6.63;;
37349;SDS011;23231;52.358;4.926;2024-02-21T05:38:48;16.23;;;6.68;;
37349;SDS011;23231;52.358;4.926;2024-02-21T05:43:54;18.77;;;6.93;;
37349;SDS011;23231;52.358;4.926;2024-02-21T05:49:18;24.38;;;7.07;;
37349;SDS011;23231;52.358;4.926;2024-02-21T05:54:30;17.85;;;7.15;;
37349;SDS011;23231;52.358;4.926;2024-02-21T05:59:41;23.38;;;7.22;;
37349;SDS011;23231;52.358;4.926;2024-02-21T06:04:51;19.42;;;7.68;;
37349;SDS011;23231;52.358;4.926;2024-02-21T06:09:56;21.95;;;9.25;;
37349;SDS011;23231;52.358;4.926;2024-02-21T06:15:04;17.65;;;8.48;;
37349;SDS011;23231;52.358;4.926;2024-02-21T06:20:16;18.25;;;9.65;;
37349;SDS011;23231;52.358;4.926;2024-02-21T06:25:22;24.65;;;10.57;;
37349;SDS011;23231;52.358;4.926;2024-02-21T06:30:25;27.42;;;11.32;;
37349;SDS011;23231;52.358;4.926;2024-02-21T06:35:34;27.88;;;11.43;;
37349;SDS011;23231;52.358;4.926;2024-02-21T06:40:35;24.83;;;10.90;;
37349;SDS011;23231;52.358;4.926;2024-02-21T06:45:51;27.52;;;11.70;;
37349;SDS011;23231;52.358;4.926;2024-02-21T06:51:02;25.58;;;11.93;;
37349;SDS011;23231;52.358;4.926;2024-02-21T06:56:10;20.13;;;11.60;;
37349;SDS011;23231;52.358;4.926;2024-02-21T07:01:14;29.67;;;12.40;;
37349;SDS011;23231;52.358;4.926;2024-02-21T07:06:22;25.90;;;11.77;;
37349;SDS011;23231;52.358;4.926;2024-02-21T07:11:27;22.42;;;11.38;;
37349;SDS011;23231;52.358;4.926;2024-02-21T07:16:42;25.92;;;13.05;;
37349;SDS011;23231;52.358;4.926;2024-02-21T07:21:59;23.13;;;12.52;;
37349;SDS011;23231;52.358;4.926;2024-02-21T07:27:13;24.67;;;13.00;;
37349;SDS011;23231;52.358;4.926;2024-02-21T07:32:21;27.20;;;12.88;;
37349;SDS011;23231;52.358;4.926;2024-02-21T07:37:26;23.10;;;13.20;;
37349;SDS011;23231;52.358;4.926;2024-02-21T07:42:31;29.58;;;13.02;;
37349;SDS011;23231;52.358;4.926;2024-02-21T07:47:36;30.30;;;14.27;;
37349;SDS011;23231;52.358;4.926;2024-02-21T07:52:44;24.95;;;13.07;;
37349;SDS011;23231;52.358;4.926;2024-02-21T07:57:54;30.60;;;14.65;;
37349;SDS011;23231;52.358;4.926;2024-02-21T08:02:58;25.10;;;14.27;;
37349;SDS011;23231;52.358;4.926;2024-02-21T08:08:10;26.05;;;12.95;;
37349;SDS011;23231;52.358;4.926;2024-02-21T08:13:21;28.20;;;13.60;;
37349;SDS011;23231;52.358;4.926;2024-02-21T08:18:32;27.70;;;14.20;;
37349;SDS011;23231;52.358;4.926;2024-02-21T08:23:38;26.00;;;13.15;;
37349;SDS011;23231;52.358;4.926;2024-02-21T08:28:45;32.97;;;13.30;;
37349;SDS011;23231;52.358;4.926;2024-02-21T08:33:50;22.75;;;12.82;;
37349;SDS011;23231;52.358;4.926;2024-02-21T08:39:02;26.23;;;13.55;;
37349;SDS011;23231;52.358;4.926;2024-02-21T08:44:06;25.15;;;14.23;;
37349;SDS011;23231;52.358;4.926;2024-02-21T08:49:17;32.08;;;13.98;;
37349;SDS011;23231;52.358;4.926;2024-02-21T08:54:21;28.80;;;13.32;;
37349;SDS011;23231;52.358;4.926;2024-02-21T08:59:23;25.85;;;14.05;;
37349;SDS011;23231;52.358;4.926;2024-02-21T09:04:26;28.67;;;14.20;;
37349;SDS011;23231;52.358;4.926;2024-02-21T09:09:39;26.60;;;13.45;;
37349;SDS011;23231;52.358;4.926;2024-02-21T09:14:46;26.17;;;14.60;;
37349;SDS011;23231;52.358;4.926;2024-02-21T09:19:54;28.13;;;14.65;;
37349;SDS011;23231;52.358;4.926;2024-02-21T09:25:05;26.77;;;13.85;;
37349;SDS011;23231;52.358;4.926;2024-02-21T09:30:06;25.63;;;11.90;;
37349;SDS011;23231;52.358;4.926;2024-02-21T09:35:11;24.38;;;11.45;;
37349;SDS011;23231;52.358;4.926;2024-02-21T09:40:17;21.80;;;12.68;;
37349;SDS011;23231;52.358;4.926;2024-02-21T09:45:23;24.60;;;13.68;;
37349;SDS011;23231;52.358;4.926;2024-02-21T09:50:33;23.85;;;13.10;;
37349;SDS011;23231;52.358;4.926;2024-02-21T09:55:39;27.23;;;14.30;;
37349;SDS011;23231;52.358;4.926;2024-02-21T10:00:43;28.65;;;14.13;;
37349;SDS011;23231;52.358;4.926;2024-02-21T10:05:51;27.87;;;14.77;;
37349;SDS011;23231;52.358;4.926;2024-02-21T10:10:53;28.27;;;14.23;;
37349;SDS011;23231;52.358;4.926;2024-02-21T10:16:02;26.00;;;13.95;;
37349;SDS011;23231;52.358;4.926;2024-02-21T10:21:18;26.60;;;13.97;;
37349;SDS011;23231;52.358;4.926;2024-02-21T10:26:26;24.60;;;13.82;;
37349;SDS011;23231;52.358;4.926;2024-02-21T10:31:27;27.52;;;14.43;;
37349;SDS011;23231;52.358;4.926;2024-02-21T10:36:31;23.80;;;13.07;;
37349;SDS011;23231;52.358;4.926;2024-02-21T10:41:35;24.52;;;12.50;;
37349;SDS011;23231;52.358;4.926;2024-02-21T10:46:43;23.27;;;12.13;;
37349;SDS011;23231;52.358;4.926;2024-02-21T10:51:46;28.70;;;11.48;;
37349;SDS011;23231;52.358;4.926;2024-02-21T10:56:49;23.38;;;11.38;;
37349;SDS011;23231;52.358;4.926;2024-02-21T11:01:54;19.60;;;11.52;;
37349;SDS011;23231;52.358;4.926;2024-02-21T11:06:57;19.17;;;10.23;;
37349;SDS011;23231;52.358;4.926;2024-02-21T11:12:07;19.02;;;9.65;;
37349;SDS011;23231;52.358;4.926;2024-02-21T11:17:16;20.10;;;10.68;;
37349;SDS011;23231;52.358;4.926;2024-02-21T11:22:20;18.52;;;10.30;;
37349;SDS011;23231;52.358;4.926;2024-02-21T11:27:33;20.38;;;11.27;;
37349;SDS011;23231;52.358;4.926;2024-02-21T11:32:39;19.27;;;11.30;;
37349;SDS011;23231;52.358;4.926;2024-02-21T11:37:51;17.92;;;11.00;;
37349;SDS011;23231;52.358;4.926;2024-02-21T11:42:58;20.13;;;11.48;;
37349;SDS011;23231;52.358;4.926;2024-02-21T11:48:06;19.30;;;10.80;;
37349;SDS011;23231;52.358;4.926;2024-02-21T11:53:12;18.63;;;11.25;;
37349;SDS011;23231;52.358;4.926;2024-02-21T11:58:19;15.98;;;10.07;;
37349;SDS011;23231;52.358;4.926;2024-02-21T12:03:26;15.18;;;10.00;;
37349;SDS011;23231;52.358;4.926;2024-02-21T12:08:50;15.20;;;10.90;;
37349;SDS011;23231;52.358;4.926;2024-02-21T12:13:59;17.33;;;11.32;;
37349;SDS011;23231;52.358;4.926;2024-02-21T12:19:07;18.08;;;10.75;;
37349;SDS011;23231;52.358;4.926;2024-02-21T12:24:31;19.05;;;12.15;;
37349;SDS011;23231;52.358;4.926;2024-02-21T12:29:39;16.92;;;11.20;;
37349;SDS011;23231;52.358;4.926;2024-02-21T12:34:44;18.27;;;11.90;;
37349;SDS011;23231;52.358;4.926;2024-02-21T12:39:51;18.05;;;10.50;;
37349;SDS011;23231;52.358;4.926;2024-02-21T12:44:59;16.73;;;10.80;;
37349;SDS011;23231;52.358;4.926;2024-02-21T12:50:08;17.30;;;10.27;;
37349;SDS011;23231;52.358;4.926;2024-02-21T12:55:15;14.10;;;9.93;;
37349;SDS011;23231;52.358;4.926;2024-02-21T13:00:40;16.02;;;9.45;;
37349;SDS011;23231;52.358;4.926;2024-02-21T13:06:08;14.05;;;9.23;;
37349;SDS011;23231;52.358;4.926;2024-02-21T13:11:31;16.38;;;9.88;;
37349;SDS011;23231;52.358;4.926;2024-02-21T13:16:34;14.82;;;8.65;;
37349;SDS011;23231;52.358;4.926;2024-02-21T13:21:42;17.13;;;9.30;;
37349;SDS011;23231;52.358;4.926;2024-02-21T13:26:45;17.73;;;9.13;;
37349;SDS011;23231;52.358;4.926;2024-02-21T13:31:55;14.65;;;9.02;;
37349;SDS011;23231;52.358;4.926;2024-02-21T13:37:02;18.02;;;9.73;;
37349;SDS011;23231;52.358;4.926;2024-02-21T13:42:10;14.68;;;8.75;;
37349;SDS011;23231;52.358;4.926;2024-02-21T13:47:36;15.80;;;9.05;;
37349;SDS011;23231;52.358;4.926;2024-02-21T13:52:44;20.00;;;8.80;;
37349;SDS011;23231;52.358;4.926;2024-02-21T13:57:51;14.43;;;8.32;;
37349;SDS011;23231;52.358;4.926;2024-02-21T14:03:18;12.65;;;7.43;;
37349;SDS011;23231;52.358;4.926;2024-02-21T14:08:45;14.57;;;8.75;;
37349;SDS011;23231;52.358;4.926;2024-02-21T14:13:51;13.68;;;7.75;;
37349;SDS011;23231;52.358;4.926;2024-02-21T14:18:58;15.00;;;7.68;;
37349;SDS011;23231;52.358;4.926;2024-02-21T14:24:16;13.65;;;6.93;;
37349;SDS011;23231;52.358;4.926;2024-02-21T14:29:18;13.73;;;7.50;;
37349;SDS011;23231;52.358;4.926;2024-02-21T14:34:30;12.65;;;7.15;;
37349;SDS011;23231;52.358;4.926;2024-02-21T14:39:34;12.77;;;8.38;;
37349;SDS011;23231;52.358;4.926;2024-02-21T14:44:41;14.50;;;8.00;;
37349;SDS011;23231;52.358;4.926;2024-02-21T14:49:44;17.35;;;8.88;;
37349;SDS011;23231;52.358;4.926;2024-02-21T14:54:46;14.98;;;10.05;;
37349;SDS011;23231;52.358;4.926;2024-02-21T14:59:53;18.55;;;10.82;;
37349;SDS011;23231;52.358;4.926;2024-02-21T15:05:29;25.55;;;12.60;;
37349;SDS011;23231;52.358;4.926;2024-02-21T15:10:38;20.92;;;13.05;;
37349;SDS011;23231;52.358;4.926;2024-02-21T15:15:42;22.45;;;13.50;;
37349;SDS011;23231;52.358;4.926;2024-02-21T15:20:46;19.17;;;11.70;;
37349;SDS011;23231;52.358;4.926;2024-02-21T15:25:54;19.33;;;11.38;;
37349;SDS011;23231;52.358;4.926;2024-02-21T15:31:02;18.48;;;11.00;;
37349;SDS011;23231;52.358;4.926;2024-02-21T15:36:10;19.42;;;10.15;;
37349;SDS011;23231;52.358;4.926;2024-02-21T15:41:19;18.02;;;9.85;;
37349;SDS011;23231;52.358;4.926;2024-02-21T15:46:25;17.23;;;10.43;;
37349;SDS011;23231;52.358;4.926;2024-02-21T15:51:47;23.48;;;10.48;;
37349;SDS011;23231;52.358;4.926;2024-02-21T15:56:50;17.23;;;9.90;;
37349;SDS011;23231;52.358;4.926;2024-02-21T16:02:03;19.13;;;10.65;;
37349;SDS011;23231;52.358;4.926;2024-02-21T16:07:18;17.02;;;10.52;;
37349;SDS011;23231;52.358;4.926;2024-02-21T16:12:28;17.77;;;10.23;;
37349;SDS011;23231;52.358;4.926;2024-02-21T16:17:52;24.35;;;10.93;;
37349;SDS011;23231;52.358;4.926;2024-02-21T16:22:59;21.90;;;11.90;;
37349;SDS011;23231;52.358;4.926;2024-02-21T16:28:06;22.65;;;11.90;;
37349;SDS011;23231;52.358;4.926;2024-02-21T16:33:12;19.02;;;11.00;;
37349;SDS011;23231;52.358;4.926;2024-02-21T16:38:23;18.85;;;11.10;;
37349;SDS011;23231;52.358;4.926;2024-02-21T16:43:33;20.85;;;12.15;;
37349;SDS011;23231;52.358;4.926;2024-02-21T16:48:47;17.85;;;11.05;;
37349;SDS011;23231;52.358;4.926;2024-02-21T16:53:56;20.77;;;12.40;;
37349;SDS011;23231;52.358;4.926;2024-02-21T16:59:11;21.60;;;11.27;;
37349;SDS011;23231;52.358;4.926;2024-02-21T17:04:17;20.27;;;12.47;;
37349;SDS011;23231;52.358;4.926;2024-02-21T17:09:25;19.23;;;12.25;;
37349;SDS011;23231;52.358;4.926;2024-02-21T17:14:35;22.35;;;12.32;;
37349;SDS011;23231;52.358;4.926;2024-02-21T17:19:58;23.70;;;12.57;;
37349;SDS011;23231;52.358;4.926;2024-02-21T17:25:00;18.00;;;11.43;;
37349;SDS011;23231;52.358;4.926;2024-02-21T17:30:10;19.50;;;12.70;;
37349;SDS011;23231;52.358;4.926;2024-02-21T17:35:17;22.13;;;11.70;;
37349;SDS011;23231;52.358;4.926;2024-02-21T17:40:18;22.35;;;12.90;;
37349;SDS011;23231;52.358;4.926;2024-02-21T17:45:27;17.95;;;11.80;;
37349;SDS011;23231;52.358;4.926;2024-02-21T17:50:30;21.73;;;12.60;;
37349;SDS011;23231;52.358;4.926;2024-02-21T17:55:34;23.48;;;12.85;;
37349;SDS011;23231;52.358;4.926;2024-02-21T18:00:46;23.27;;;14.48;;
37349;SDS011;23231;52.358;4.926;2024-02-21T18:06:02;24.90;;;15.18;;
37349;SDS011;23231;52.358;4.926;2024-02-21T18:11:03;20.08;;;12.90;;
37349;SDS011;23231;52.358;4.926;2024-02-21T18:16:07;22.77;;;13.70;;
37349;SDS011;23231;52.358;4.926;2024-02-21T18:21:10;26.45;;;15.48;;
37349;SDS011;23231;52.358;4.926;2024-02-21T18:26:18;24.05;;;15.00;;
37349;SDS011;23231;52.358;4.926;2024-02-21T18:31:29;22.87;;;14.27;;
37349;SDS011;23231;52.358;4.926;2024-02-21T18:36:34;28.50;;;15.82;;
37349;SDS011;23231;52.358;4.926;2024-02-21T18:41:40;25.95;;;15.65;;
37349;SDS011;23231;52.358;4.926;2024-02-21T18:46:47;25.15;;;15.30;;
37349;SDS011;23231;52.358;4.926;2024-02-21T18:51:51;29.63;;;17.15;;
37349;SDS011;23231;52.358;4.926;2024-02-21T18:57:16;27.33;;;16.48;;
37349;SDS011;23231;52.358;4.926;2024-02-21T19:02:23;27.08;;;16.92;;
37349;SDS011;23231;52.358;4.926;2024-02-21T19:12:34;26.13;;;16.38;;
37349;SDS011;23231;52.358;4.926;2024-02-21T19:17:38;27.00;;;17.25;;
37349;SDS011;23231;52.358;4.926;2024-02-21T19:22:43;29.70;;;18.10;;
37349;SDS011;23231;52.358;4.926;2024-02-21T19:27:50;31.70;;;18.20;;
37349;SDS011;23231;52.358;4.926;2024-02-21T19:32:58;26.75;;;17.00;;
37349;SDS011;23231;52.358;4.926;2024-02-21T19:38:07;30.73;;;18.60;;
37349;SDS011;23231;52.358;4.926;2024-02-21T19:43:23;30.13;;;17.58;;
37349;SDS011;23231;52.358;4.926;2024-02-21T19:48:30;26.88;;;16.67;;
37349;SDS011;23231;52.358;4.926;2024-02-21T19:53:36;23.80;;;16.27;;
37349;SDS011;23231;52.358;4.926;2024-02-21T19:58:57;27.17;;;17.05;;
37349;SDS011;23231;52.358;4.926;2024-02-21T20:04:08;25.23;;;14.95;;
37349;SDS011;23231;52.358;4.926;2024-02-21T20:09:10;19.95;;;13.80;;
37349;SDS011;23231;52.358;4.926;2024-02-21T20:14:13;23.05;;;13.25;;
37349;SDS011;23231;52.358;4.926;2024-02-21T20:19:26;21.55;;;13.48;;
37349;SDS011;23231;52.358;4.926;2024-02-21T20:24:28;23.25;;;13.75;;
37349;SDS011;23231;52.358;4.926;2024-02-21T20:29:31;17.70;;;11.45;;
37349;SDS011;23231;52.358;4.926;2024-02-21T20:34:36;18.92;;;12.13;;
37349;SDS011;23231;52.358;4.926;2024-02-21T20:39:44;17.83;;;11.27;;
37349;SDS011;23231;52.358;4.926;2024-02-21T20:44:47;22.15;;;12.65;;
37349;SDS011;23231;52.358;4.926;2024-02-21T20:49:51;18.23;;;11.10;;
37349;SDS011;23231;52.358;4.926;2024-02-21T20:54:59;16.45;;;10.10;;
37349;SDS011;23231;52.358;4.926;2024-02-21T21:00:06;17.80;;;10.63;;
37349;SDS011;23231;52.358;4.926;2024-02-21T21:05:17;13.82;;;9.40;;
37349;SDS011;23231;52.358;4.926;2024-02-21T21:10:34;18.30;;;11.05;;
37349;SDS011;23231;52.358;4.926;2024-02-21T21:15:39;18.65;;;11.60;;
37349;SDS011;23231;52.358;4.926;2024-02-21T21:20:50;18.25;;;11.35;;
37349;SDS011;23231;52.358;4.926;2024-02-21T21:25:54;17.25;;;11.45;;
37349;SDS011;23231;52.358;4.926;2024-02-21T21:30:57;18.02;;;11.25;;
37349;SDS011;23231;52.358;4.926;2024-02-21T21:36:05;17.63;;;11.02;;
37349;SDS011;23231;52.358;4.926;2024-02-21T21:41:16;16.33;;;10.80;;
37349;SDS011;23231;52.358;4.926;2024-02-21T21:46:26;16.83;;;10.52;;
37349;SDS011;23231;52.358;4.926;2024-02-21T21:51:28;17.83;;;11.38;;
37349;SDS011;23231;52.358;4.926;2024-02-21T21:56:31;16.25;;;10.27;;
37349;SDS011;23231;52.358;4.926;2024-02-21T22:01:37;15.57;;;10.00;;
37349;SDS011;23231;52.358;4.926;2024-02-21T22:06:42;18.70;;;11.47;;
37349;SDS011;23231;52.358;4.926;2024-02-21T22:11:52;15.93;;;10.90;;
37349;SDS011;23231;52.358;4.926;2024-02-21T22:16:58;18.23;;;10.88;;
37349;SDS011;23231;52.358;4.926;2024-02-21T22:22:03;15.98;;;10.70;;
37349;SDS011;23231;52.358;4.926;2024-02-21T22:27:17;15.27;;;9.82;;
37349;SDS011;23231;52.358;4.926;2024-02-21T22:32:29;17.55;;;10.80;;
37349;SDS011;23231;52.358;4.926;2024-02-21T22:37:39;16.15;;;10.18;;
37349;SDS011;23231;52.358;4.926;2024-02-21T22:42:59;14.93;;;9.73;;
37349;SDS011;23231;52.358;4.926;2024-02-21T22:48:27;15.75;;;9.45;;
37349;SDS011;23231;52.358;4.926;2024-02-21T22:53:29;14.20;;;8.45;;
37349;SDS011;23231;52.358;4.926;2024-02-21T22:58:39;13.82;;;8.57;;
37349;SDS011;23231;52.358;4.926;2024-02-21T23:03:46;13.55;;;8.15;;
37349;SDS011;23231;52.358;4.926;2024-02-21T23:08:50;12.52;;;7.93;;
37349;SDS011;23231;52.358;4.926;2024-02-21T23:14:06;11.65;;;7.13;;
37349;SDS011;23231;52.358;4.926;2024-02-21T23:19:17;10.52;;;6.57;;
37349;SDS011;23231;52.358;4.926;2024-02-21T23:24:26;10.45;;;6.25;;
37349;SDS011;23231;52.358;4.926;2024-02-21T23:29:33;8.85;;;5.45;;
37349;SDS011;23231;52.358;4.926;2024-02-21T23:34:43;11.18;;;6.80;;
37349;SDS011;23231;52.358;4.926;2024-02-21T23:39:52;8.93;;;5.57;;
37349;SDS011;23231;52.358;4.926;2024-02-21T23:44:56;8.23;;;4.93;;
37349;SDS011;23231;52.358;4.926;2024-02-21T23:50:04;8.38;;;4.90;;
